sensor_id;sensor_type;location;lat;lon;timestamp;pressure;altitude;pressure_sealevel;temperature;humidity
54455;BME280;40364;52.270;10.546;2023-12-20T00:02:03;100124.09;;;14.63;92.99
54455;BME280;40364;52.270;10.546;2023-12-20T00:04:30;100121.72;;;14.39;94.84
54455;BME280;40364;52.270;10.546;2023-12-20T00:06:58;100117.63;;;15.33;91.71
54455;BME280;40364;52.270;10.546;2023-12-20T00:09:24;100105.78;;;13.60;100.00
54455;BME280;40364;52.270;10.546;2023-12-20T00:11:51;100101.03;;;13.38;100.00
54455;BME280;40364;52.270;10.546;2023-12-20T00:14:17;100105.84;;;13.18;100.00
54455;BME280;40364;52.270;10.546;2023-12-20T00:16:44;100111.94;;;12.81;100.00
54455;BME280;40364;52.270;10.546;2023-12-20T00:19:11;100102.72;;;13.00;100.00
54455;BME280;40364;52.270;10.546;2023-12-20T00:21:37;100113.19;;;14.28;100.00
54455;BME280;40364;52.270;10.546;2023-12-20T00:24:05;100115.22;;;14.58;97.19
54455;BME280;40364;52.270;10.546;2023-12-20T00:26:32;100102.59;;;13.62;100.00
54455;BME280;40364;52.270;10.546;2023-12-20T00:28:59;100111.09;;;13.00;100.00
54455;BME280;40364;52.270;10.546;2023-12-20T00:31:26;100110.97;;;12.93;100.00
54455;BME280;40364;52.270;10.546;2023-12-20T00:33:52;100127.22;;;13.75;100.00
54455;BME280;40364;52.270;10.546;2023-12-20T00:36:19;100119.88;;;14.20;100.00
54455;BME280;40364;52.270;10.546;2023-12-20T00:38:46;100125.34;;;14.69;94.52
54455;BME280;40364;52.270;10.546;2023-12-20T00:41:14;100121.31;;;15.85;88.23
54455;BME280;40364;52.270;10.546;2023-12-20T00:43:41;100117.50;;;15.19;89.71
54455;BME280;40364;52.270;10.546;2023-12-20T00:46:07;100121.53;;;14.51;96.04
54455;BME280;40364;52.270;10.546;2023-12-20T00:48:34;100120.03;;;14.94;93.71
54455;BME280;40364;52.270;10.546;2023-12-20T00:51:01;100117.66;;;15.37;87.19
54455;BME280;40364;52.270;10.546;2023-12-20T00:53:28;100128.94;;;15.44;89.22
54455;BME280;40364;52.270;10.546;2023-12-20T00:55:54;100128.03;;;14.92;88.72
54455;BME280;40364;52.270;10.546;2023-12-20T00:58:22;100127.38;;;15.46;86.88
54455;BME280;40364;52.270;10.546;2023-12-20T01:00:49;100134.56;;;15.44;88.10
54455;BME280;40364;52.270;10.546;2023-12-20T01:03:16;100135.41;;;15.07;92.84
54455;BME280;40364;52.270;10.546;2023-12-20T01:05:43;100139.47;;;15.54;86.90
54455;BME280;40364;52.270;10.546;2023-12-20T01:08:09;100146.47;;;15.34;88.50
54455;BME280;40364;52.270;10.546;2023-12-20T01:10:36;100137.34;;;14.66;92.92
54455;BME280;40364;52.270;10.546;2023-12-20T01:13:03;100138.13;;;14.10;94.53
54455;BME280;40364;52.270;10.546;2023-12-20T01:15:31;100138.25;;;15.52;87.81
54455;BME280;40364;52.270;10.546;2023-12-20T01:17:57;100138.16;;;14.40;90.47
54455;BME280;40364;52.270;10.546;2023-12-20T01:20:24;100122.66;;;13.90;94.97
54455;BME280;40364;52.270;10.546;2023-12-20T01:22:51;100132.84;;;14.92;87.48
54455;BME280;40364;52.270;10.546;2023-12-20T01:25:18;100129.31;;;15.83;80.79
54455;BME280;40364;52.270;10.546;2023-12-20T01:27:45;100135.47;;;15.55;82.75
54455;BME280;40364;52.270;10.546;2023-12-20T01:30:12;100133.47;;;15.56;81.93
54455;BME280;40364;52.270;10.546;2023-12-20T01:32:40;100134.34;;;13.96;88.91
54455;BME280;40364;52.270;10.546;2023-12-20T01:35:07;100140.69;;;13.93;90.82
54455;BME280;40364;52.270;10.546;2023-12-20T01:37:34;100140.41;;;14.88;nan
54455;BME280;40364;52.270;10.546;2023-12-20T01:40:01;100140.44;;;14.91;81.67
54455;BME280;40364;52.270;10.546;2023-12-20T01:42:27;100138.78;;;14.87;80.81
54455;BME280;40364;52.270;10.546;2023-12-20T01:44:54;100137.47;;;14.47;86.24
54455;BME280;40364;52.270;10.546;2023-12-20T01:47:21;100140.44;;;15.32;78.15
54455;BME280;40364;52.270;10.546;2023-12-20T01:49:49;100133.03;;;15.50;76.89
54455;BME280;40364;52.270;10.546;2023-12-20T01:52:16;100144.94;;;13.14;90.71
54455;BME280;40364;52.270;10.546;2023-12-20T01:54:43;100151.22;;;14.89;80.39
54455;BME280;40364;52.270;10.546;2023-12-20T01:57:10;100142.69;;;14.78;80.27
54455;BME280;40364;52.270;10.546;2023-12-20T01:59:39;100139.66;;;14.31;83.45
54455;BME280;40364;52.270;10.546;2023-12-20T02:02:07;100144.03;;;14.58;80.81
54455;BME280;40364;52.270;10.546;2023-12-20T02:04:34;100144.78;;;13.99;86.19
54455;BME280;40364;52.270;10.546;2023-12-20T02:07:03;100141.84;;;14.18;85.33
54455;BME280;40364;52.270;10.546;2023-12-20T02:09:31;100150.25;;;14.18;85.72
54455;BME280;40364;52.270;10.546;2023-12-20T02:11:58;100143.28;;;14.05;85.46
54455;BME280;40364;52.270;10.546;2023-12-20T02:14:25;100158.38;;;14.53;82.21
54455;BME280;40364;52.270;10.546;2023-12-20T02:16:52;100155.81;;;14.41;81.26
54455;BME280;40364;52.270;10.546;2023-12-20T02:19:19;100153.06;;;14.18;84.07
54455;BME280;40364;52.270;10.546;2023-12-20T02:21:48;100151.69;;;14.05;86.46
54455;BME280;40364;52.270;10.546;2023-12-20T02:24:15;100148.97;;;13.86;85.41
54455;BME280;40364;52.270;10.546;2023-12-20T02:26:43;100151.69;;;13.33;88.07
54455;BME280;40364;52.270;10.546;2023-12-20T02:29:10;100161.56;;;14.25;82.23
54455;BME280;40364;52.270;10.546;2023-12-20T02:31:37;100159.78;;;13.19;88.51
54455;BME280;40364;52.270;10.546;2023-12-20T02:34:03;100159.91;;;13.94;85.53
54455;BME280;40364;52.270;10.546;2023-12-20T02:36:30;100159.31;;;14.08;84.36
54455;BME280;40364;52.270;10.546;2023-12-20T02:38:58;100162.00;;;13.74;81.97
54455;BME280;40364;52.270;10.546;2023-12-20T02:41:25;100148.06;;;13.55;87.28
54455;BME280;40364;52.270;10.546;2023-12-20T02:43:51;100143.34;;;13.59;82.70
54455;BME280;40364;52.270;10.546;2023-12-20T02:46:18;100146.09;;;13.33;87.96
54455;BME280;40364;52.270;10.546;2023-12-20T02:48:45;100131.94;;;13.45;83.99
54455;BME280;40364;52.270;10.546;2023-12-20T02:51:12;100132.66;;;13.42;85.60
54455;BME280;40364;52.270;10.546;2023-12-20T02:53:39;100138.09;;;13.80;83.11
54455;BME280;40364;52.270;10.546;2023-12-20T02:56:07;100139.59;;;13.74;82.75
54455;BME280;40364;52.270;10.546;2023-12-20T02:58:34;100131.13;;;13.44;82.20
54455;BME280;40364;52.270;10.546;2023-12-20T03:01:00;100127.31;;;14.09;78.82
54455;BME280;40364;52.270;10.546;2023-12-20T03:03:27;100132.09;;;13.33;84.68
54455;BME280;40364;52.270;10.546;2023-12-20T03:05:54;100135.81;;;13.63;81.60
54455;BME280;40364;52.270;10.546;2023-12-20T03:08:21;100131.84;;;13.64;82.90
54455;BME280;40364;52.270;10.546;2023-12-20T03:10:47;100118.59;;;12.96;87.21
54455;BME280;40364;52.270;10.546;2023-12-20T03:13:15;100121.28;;;13.80;81.94
54455;BME280;40364;52.270;10.546;2023-12-20T03:15:42;100122.56;;;13.60;79.98
54455;BME280;40364;52.270;10.546;2023-12-20T03:18:09;100119.31;;;12.70;86.06
54455;BME280;40364;52.270;10.546;2023-12-20T03:20:35;100128.44;;;12.48;89.77
54455;BME280;40364;52.270;10.546;2023-12-20T03:23:02;100126.63;;;12.98;84.68
54455;BME280;40364;52.270;10.546;2023-12-20T03:25:29;100120.44;;;12.89;85.13
54455;BME280;40364;52.270;10.546;2023-12-20T03:27:56;100111.38;;;13.60;79.21
54455;BME280;40364;52.270;10.546;2023-12-20T03:30:24;100111.34;;;13.83;78.43
54455;BME280;40364;52.270;10.546;2023-12-20T03:32:51;100110.78;;;13.25;81.64
54455;BME280;40364;52.270;10.546;2023-12-20T03:35:18;100104.03;;;13.06;80.95
54455;BME280;40364;52.270;10.546;2023-12-20T03:37:43;100111.59;;;12.83;81.96
54455;BME280;40364;52.270;10.546;2023-12-20T03:40:10;100103.19;;;12.64;83.45
54455;BME280;40364;52.270;10.546;2023-12-20T03:42:37;100100.38;;;13.25;79.89
54455;BME280;40364;52.270;10.546;2023-12-20T03:45:04;100090.25;;;12.56;81.83
54455;BME280;40364;52.270;10.546;2023-12-20T03:47:33;100085.28;;;12.88;82.16
54455;BME280;40364;52.270;10.546;2023-12-20T03:49:59;100084.75;;;12.21;84.85
54455;BME280;40364;52.270;10.546;2023-12-20T03:52:27;100089.59;;;12.24;83.39
54455;BME280;40364;52.270;10.546;2023-12-20T03:54:53;100086.88;;;13.08;80.34
54455;BME280;40364;52.270;10.546;2023-12-20T03:57:20;100078.34;;;13.01;76.53
54455;BME280;40364;52.270;10.546;2023-12-20T03:59:47;100083.81;;;12.94;77.63
54455;BME280;40364;52.270;10.546;2023-12-20T04:02:13;100084.75;;;12.40;81.08
54455;BME280;40364;52.270;10.546;2023-12-20T04:04:42;100083.69;;;12.87;80.05
54455;BME280;40364;52.270;10.546;2023-12-20T04:07:09;100084.91;;;12.28;80.60
54455;BME280;40364;52.270;10.546;2023-12-20T04:09:35;100088.97;;;12.92;78.27
54455;BME280;40364;52.270;10.546;2023-12-20T04:12:03;100093.66;;;12.45;78.64
54455;BME280;40364;52.270;10.546;2023-12-20T04:14:31;100084.13;;;13.57;72.90
54455;BME280;40364;52.270;10.546;2023-12-20T04:16:57;100081.50;;;12.57;75.21
54455;BME280;40364;52.270;10.546;2023-12-20T04:19:24;100081.81;;;12.94;74.96
54455;BME280;40364;52.270;10.546;2023-12-20T04:21:52;100072.47;;;13.29;72.64
54455;BME280;40364;52.270;10.546;2023-12-20T04:24:19;100074.03;;;12.23;76.98
54455;BME280;40364;52.270;10.546;2023-12-20T04:26:45;100073.66;;;11.54;82.58
54455;BME280;40364;52.270;10.546;2023-12-20T04:29:12;100059.59;;;13.01;70.87
54455;BME280;40364;52.270;10.546;2023-12-20T04:31:39;100059.41;;;12.29;77.05
54455;BME280;40364;52.270;10.546;2023-12-20T04:34:05;100055.97;;;11.66;80.38
54455;BME280;40364;52.270;10.546;2023-12-20T04:36:32;100070.63;;;12.71;72.52
54455;BME280;40364;52.270;10.546;2023-12-20T04:39:00;100075.03;;;13.14;72.28
54455;BME280;40364;52.270;10.546;2023-12-20T04:41:28;100059.16;;;12.76;74.28
54455;BME280;40364;52.270;10.546;2023-12-20T04:43:55;100069.59;;;13.02;72.14
54455;BME280;40364;52.270;10.546;2023-12-20T04:46:21;100076.66;;;12.96;72.73
54455;BME280;40364;52.270;10.546;2023-12-20T04:48:48;100075.00;;;12.92;71.07
54455;BME280;40364;52.270;10.546;2023-12-20T04:51:15;100082.81;;;12.05;78.39
54455;BME280;40364;52.270;10.546;2023-12-20T04:53:42;100075.97;;;11.84;80.51
54455;BME280;40364;52.270;10.546;2023-12-20T04:56:10;100078.19;;;12.71;77.56
54455;BME280;40364;52.270;10.546;2023-12-20T04:58:37;100055.28;;;12.23;77.85
54455;BME280;40364;52.270;10.546;2023-12-20T05:01:05;100060.28;;;12.33;78.29
54455;BME280;40364;52.270;10.546;2023-12-20T05:03:32;100061.00;;;12.11;78.52
54455;BME280;40364;52.270;10.546;2023-12-20T05:05:59;100057.13;;;12.16;78.46
54455;BME280;40364;52.270;10.546;2023-12-20T05:08:26;100056.09;;;12.24;75.85
54455;BME280;40364;52.270;10.546;2023-12-20T05:10:54;100058.41;;;11.67;79.36
54455;BME280;40364;52.270;10.546;2023-12-20T05:13:22;100060.41;;;12.02;80.36
54455;BME280;40364;52.270;10.546;2023-12-20T05:15:49;100055.72;;;12.25;77.53
54455;BME280;40364;52.270;10.546;2023-12-20T05:18:16;100049.59;;;13.00;73.81
54455;BME280;40364;52.270;10.546;2023-12-20T05:20:42;100053.44;;;12.92;73.49
54455;BME280;40364;52.270;10.546;2023-12-20T05:23:09;100050.59;;;13.11;71.35
54455;BME280;40364;52.270;10.546;2023-12-20T05:25:36;100058.53;;;12.44;73.06
54455;BME280;40364;52.270;10.546;2023-12-20T05:28:04;100054.31;;;12.54;76.56
54455;BME280;40364;52.270;10.546;2023-12-20T05:30:32;100056.38;;;13.45;70.58
54455;BME280;40364;52.270;10.546;2023-12-20T05:32:58;100050.47;;;13.04;70.11
54455;BME280;40364;52.270;10.546;2023-12-20T05:35:25;100063.09;;;12.53;74.65
54455;BME280;40364;52.270;10.546;2023-12-20T05:37:52;100044.53;;;12.87;74.69
54455;BME280;40364;52.270;10.546;2023-12-20T05:40:19;100054.69;;;12.14;76.93
54455;BME280;40364;52.270;10.546;2023-12-20T05:42:45;100044.56;;;13.09;73.23
54455;BME280;40364;52.270;10.546;2023-12-20T05:45:13;100045.72;;;12.86;74.03
54455;BME280;40364;52.270;10.546;2023-12-20T05:47:41;100043.03;;;13.35;73.10
54455;BME280;40364;52.270;10.546;2023-12-20T05:50:08;100038.38;;;13.99;67.13
54455;BME280;40364;52.270;10.546;2023-12-20T05:52:34;100042.34;;;13.19;70.13
54455;BME280;40364;52.270;10.546;2023-12-20T05:55:01;100034.25;;;13.63;68.32
54455;BME280;40364;52.270;10.546;2023-12-20T05:57:28;100028.13;;;12.85;71.04
54455;BME280;40364;52.270;10.546;2023-12-20T05:59:55;100031.53;;;13.66;69.11
54455;BME280;40364;52.270;10.546;2023-12-20T06:02:21;100030.31;;;12.95;72.11
54455;BME280;40364;52.270;10.546;2023-12-20T06:04:49;100025.00;;;13.59;70.31
54455;BME280;40364;52.270;10.546;2023-12-20T06:07:16;100033.31;;;12.83;72.73
54455;BME280;40364;52.270;10.546;2023-12-20T06:09:43;100029.00;;;12.66;76.47
54455;BME280;40364;52.270;10.546;2023-12-20T06:12:10;100032.19;;;13.10;75.15
54455;BME280;40364;52.270;10.546;2023-12-20T06:14:37;100042.28;;;13.38;73.67
54455;BME280;40364;52.270;10.546;2023-12-20T06:17:03;100040.69;;;12.95;76.36
54455;BME280;40364;52.270;10.546;2023-12-20T06:19:30;100046.50;;;13.05;75.69
54455;BME280;40364;52.270;10.546;2023-12-20T06:21:58;100040.16;;;14.44;70.37
54455;BME280;40364;52.270;10.546;2023-12-20T06:24:25;100048.31;;;13.66;72.26
54455;BME280;40364;52.270;10.546;2023-12-20T06:26:53;100039.00;;;13.59;71.75
54455;BME280;40364;52.270;10.546;2023-12-20T06:29:20;100039.47;;;13.64;70.62
54455;BME280;40364;52.270;10.546;2023-12-20T06:31:46;100049.59;;;13.00;77.15
54455;BME280;40364;52.270;10.546;2023-12-20T06:34:13;100048.72;;;12.96;76.92
54455;BME280;40364;52.270;10.546;2023-12-20T06:36:39;100042.31;;;12.96;76.57
54455;BME280;40364;52.270;10.546;2023-12-20T06:39:07;100039.78;;;13.10;74.37
54455;BME280;40364;52.270;10.546;2023-12-20T06:41:34;100032.63;;;13.35;75.77
54455;BME280;40364;52.270;10.546;2023-12-20T06:44:01;100042.38;;;12.99;75.51
54455;BME280;40364;52.270;10.546;2023-12-20T06:46:27;100050.53;;;13.31;74.50
54455;BME280;40364;52.270;10.546;2023-12-20T06:48:54;100040.13;;;13.54;72.43
54455;BME280;40364;52.270;10.546;2023-12-20T06:51:21;100040.31;;;14.25;68.87
54455;BME280;40364;52.270;10.546;2023-12-20T06:53:50;100037.97;;;14.30;67.82
54455;BME280;40364;52.270;10.546;2023-12-20T06:56:18;100051.56;;;14.28;68.07
54455;BME280;40364;52.270;10.546;2023-12-20T06:58:46;100052.06;;;14.37;67.94
54455;BME280;40364;52.270;10.546;2023-12-20T07:01:13;100029.59;;;13.44;70.35
54455;BME280;40364;52.270;10.546;2023-12-20T07:03:40;100030.97;;;13.31;72.64
54455;BME280;40364;52.270;10.546;2023-12-20T07:06:07;100028.69;;;13.93;69.30
54455;BME280;40364;52.270;10.546;2023-12-20T07:08:34;100026.03;;;14.03;67.82
54455;BME280;40364;52.270;10.546;2023-12-20T07:11:01;100024.50;;;13.27;72.20
54455;BME280;40364;52.270;10.546;2023-12-20T07:13:29;100029.47;;;13.63;71.79
54455;BME280;40364;52.270;10.546;2023-12-20T07:15:56;100026.19;;;14.47;66.42
54455;BME280;40364;52.270;10.546;2023-12-20T07:18:23;100027.41;;;13.60;70.76
54455;BME280;40364;52.270;10.546;2023-12-20T07:20:50;100021.25;;;13.74;69.94
54455;BME280;40364;52.270;10.546;2023-12-20T07:23:17;100028.59;;;13.10;74.58
54455;BME280;40364;52.270;10.546;2023-12-20T07:25:45;100031.84;;;12.47;76.92
54455;BME280;40364;52.270;10.546;2023-12-20T07:28:11;100018.78;;;12.97;76.41
54455;BME280;40364;52.270;10.546;2023-12-20T07:30:39;100015.50;;;13.14;74.44
54455;BME280;40364;52.270;10.546;2023-12-20T07:33:06;100028.63;;;12.68;78.72
54455;BME280;40364;52.270;10.546;2023-12-20T07:35:34;100022.72;;;13.94;71.35
54455;BME280;40364;52.270;10.546;2023-12-20T07:38:01;100039.09;;;14.56;66.64
54455;BME280;40364;52.270;10.546;2023-12-20T07:40:27;100050.28;;;14.52;66.11
54455;BME280;40364;52.270;10.546;2023-12-20T07:42:54;100044.19;;;13.87;67.85
54455;BME280;40364;52.270;10.546;2023-12-20T07:45:21;100032.47;;;14.07;67.39
54455;BME280;40364;52.270;10.546;2023-12-20T07:47:49;100035.19;;;14.00;68.96
54455;BME280;40364;52.270;10.546;2023-12-20T07:50:16;100055.06;;;14.52;64.53
54455;BME280;40364;52.270;10.546;2023-12-20T07:52:43;100044.25;;;13.90;67.54
54455;BME280;40364;52.270;10.546;2023-12-20T07:55:09;100042.34;;;12.34;77.60
54455;BME280;40364;52.270;10.546;2023-12-20T07:57:36;100038.25;;;12.09;79.28
54455;BME280;40364;52.270;10.546;2023-12-20T08:00:04;100026.56;;;12.65;74.68
54455;BME280;40364;52.270;10.546;2023-12-20T08:02:31;100030.03;;;13.00;72.95
54455;BME280;40364;52.270;10.546;2023-12-20T08:04:59;100019.44;;;12.90;74.09
54455;BME280;40364;52.270;10.546;2023-12-20T08:07:26;100024.94;;;13.55;70.81
54455;BME280;40364;52.270;10.546;2023-12-20T08:09:53;100035.81;;;13.60;69.05
54455;BME280;40364;52.270;10.546;2023-12-20T08:12:20;100037.00;;;13.10;72.01
54455;BME280;40364;52.270;10.546;2023-12-20T08:14:46;100024.22;;;14.18;68.35
54455;BME280;40364;52.270;10.546;2023-12-20T08:17:13;100027.38;;;13.57;69.77
54455;BME280;40364;52.270;10.546;2023-12-20T08:19:41;100026.13;;;14.10;66.61
54455;BME280;40364;52.270;10.546;2023-12-20T08:22:10;100019.75;;;13.83;68.24
54455;BME280;40364;52.270;10.546;2023-12-20T08:24:37;100021.97;;;13.97;67.17
54455;BME280;40364;52.270;10.546;2023-12-20T08:27:04;100022.47;;;12.59;73.21
54455;BME280;40364;52.270;10.546;2023-12-20T08:29:31;100024.97;;;14.82;63.43
54455;BME280;40364;52.270;10.546;2023-12-20T08:31:58;100025.16;;;13.69;65.41
54455;BME280;40364;52.270;10.546;2023-12-20T08:34:25;100034.94;;;14.42;64.18
54455;BME280;40364;52.270;10.546;2023-12-20T08:36:52;100044.00;;;14.32;65.27
54455;BME280;40364;52.270;10.546;2023-12-20T08:39:20;100042.75;;;15.00;63.62
54455;BME280;40364;52.270;10.546;2023-12-20T08:41:47;100043.09;;;13.65;69.11
54455;BME280;40364;52.270;10.546;2023-12-20T08:44:13;100036.97;;;14.15;67.11
54455;BME280;40364;52.270;10.546;2023-12-20T08:46:40;100024.13;;;13.28;71.35
54455;BME280;40364;52.270;10.546;2023-12-20T08:49:07;100018.09;;;13.53;75.90
54455;BME280;40364;52.270;10.546;2023-12-20T08:51:35;100015.56;;;14.30;71.08
54455;BME280;40364;52.270;10.546;2023-12-20T08:54:05;100021.63;;;13.00;79.67
54455;BME280;40364;52.270;10.546;2023-12-20T08:56:34;100017.25;;;14.05;74.89
54455;BME280;40364;52.270;10.546;2023-12-20T08:59:01;100011.69;;;13.78;74.11
54455;BME280;40364;52.270;10.546;2023-12-20T09:01:28;100000.16;;;12.81;80.10
54455;BME280;40364;52.270;10.546;2023-12-20T09:03:54;99996.28;;;12.67;79.63
54455;BME280;40364;52.270;10.546;2023-12-20T09:06:21;99997.66;;;13.48;75.64
54455;BME280;40364;52.270;10.546;2023-12-20T09:08:47;99989.63;;;12.98;77.24
54455;BME280;40364;52.270;10.546;2023-12-20T09:11:14;99992.81;;;13.45;75.65
54455;BME280;40364;52.270;10.546;2023-12-20T09:13:44;99991.25;;;13.48;74.25
54455;BME280;40364;52.270;10.546;2023-12-20T09:16:10;99986.72;;;13.13;75.07
54455;BME280;40364;52.270;10.546;2023-12-20T09:18:41;99973.41;;;12.84;76.44
54455;BME280;40364;52.270;10.546;2023-12-20T09:21:08;99971.75;;;13.02;73.12
54455;BME280;40364;52.270;10.546;2023-12-20T09:23:34;99991.22;;;14.38;67.85
54455;BME280;40364;52.270;10.546;2023-12-20T09:26:02;99984.81;;;14.34;69.28
54455;BME280;40364;52.270;10.546;2023-12-20T09:28:29;99981.94;;;14.30;69.30
54455;BME280;40364;52.270;10.546;2023-12-20T09:30:59;99980.50;;;14.43;68.03
54455;BME280;40364;52.270;10.546;2023-12-20T09:33:25;99974.00;;;12.47;76.10
54455;BME280;40364;52.270;10.546;2023-12-20T09:35:52;99964.81;;;12.70;75.71
54455;BME280;40364;52.270;10.546;2023-12-20T09:38:19;99960.59;;;13.29;71.93
54455;BME280;40364;52.270;10.546;2023-12-20T09:40:45;99962.91;;;12.55;74.41
54455;BME280;40364;52.270;10.546;2023-12-20T09:43:14;99948.63;;;13.58;71.67
54455;BME280;40364;52.270;10.546;2023-12-20T09:45:43;99940.66;;;13.30;71.04
54455;BME280;40364;52.270;10.546;2023-12-20T09:48:13;99946.97;;;13.83;69.74
54455;BME280;40364;52.270;10.546;2023-12-20T09:50:43;99945.91;;;12.86;76.32
54455;BME280;40364;52.270;10.546;2023-12-20T09:53:14;99944.97;;;12.56;81.74
54455;BME280;40364;52.270;10.546;2023-12-20T09:55:42;99937.38;;;12.10;81.29
54455;BME280;40364;52.270;10.546;2023-12-20T09:58:09;99944.72;;;12.19;80.51
54455;BME280;40364;52.270;10.546;2023-12-20T10:00:36;99943.13;;;13.35;73.90
54455;BME280;40364;52.270;10.546;2023-12-20T10:03:03;99924.44;;;13.17;74.97
54455;BME280;40364;52.270;10.546;2023-12-20T10:05:34;99930.66;;;13.59;72.44
54455;BME280;40364;52.270;10.546;2023-12-20T10:08:01;99919.84;;;12.33;79.44
54455;BME280;40364;52.270;10.546;2023-12-20T10:10:27;99922.84;;;12.24;75.77
54455;BME280;40364;52.270;10.546;2023-12-20T10:13:04;99925.38;;;12.75;75.18
54455;BME280;40364;52.270;10.546;2023-12-20T10:15:32;99907.66;;;13.17;73.14
54455;BME280;40364;52.270;10.546;2023-12-20T10:17:59;99915.53;;;13.34;70.63
54455;BME280;40364;52.270;10.546;2023-12-20T10:20:25;99908.16;;;12.73;73.44
54455;BME280;40364;52.270;10.546;2023-12-20T10:22:55;99919.91;;;12.59;73.92
54455;BME280;40364;52.270;10.546;2023-12-20T10:25:23;99902.09;;;13.17;72.29
54455;BME280;40364;52.270;10.546;2023-12-20T10:27:50;99902.72;;;13.06;72.38
54455;BME280;40364;52.270;10.546;2023-12-20T10:30:34;99883.72;;;12.43;73.48
54455;BME280;40364;52.270;10.546;2023-12-20T10:33:01;99878.09;;;13.15;72.48
54455;BME280;40364;52.270;10.546;2023-12-20T10:35:27;99877.72;;;13.47;70.26
54455;BME280;40364;52.270;10.546;2023-12-20T10:38:06;99876.06;;;13.72;69.07
54455;BME280;40364;52.270;10.546;2023-12-20T10:40:39;99873.00;;;13.51;70.59
54455;BME280;40364;52.270;10.546;2023-12-20T10:43:07;99868.75;;;13.98;68.06
54455;BME280;40364;52.270;10.546;2023-12-20T10:45:35;99863.94;;;14.39;64.27
54455;BME280;40364;52.270;10.546;2023-12-20T10:48:02;99859.63;;;13.37;67.81
54455;BME280;40364;52.270;10.546;2023-12-20T10:50:30;99863.53;;;14.33;65.17
54455;BME280;40364;52.270;10.546;2023-12-20T10:52:58;99859.00;;;14.22;65.22
54455;BME280;40364;52.270;10.546;2023-12-20T10:55:26;99853.94;;;13.60;66.90
54455;BME280;40364;52.270;10.546;2023-12-20T10:57:54;99849.09;;;13.57;67.95
54455;BME280;40364;52.270;10.546;2023-12-20T11:00:24;99847.56;;;13.03;69.31
54455;BME280;40364;52.270;10.546;2023-12-20T11:02:51;99836.53;;;13.77;67.89
54455;BME280;40364;52.270;10.546;2023-12-20T11:05:26;99844.84;;;14.07;67.99
54455;BME280;40364;52.270;10.546;2023-12-20T11:08:03;99821.28;;;14.12;68.04
54455;BME280;40364;52.270;10.546;2023-12-20T11:10:39;99834.88;;;14.51;65.99
54455;BME280;40364;52.270;10.546;2023-12-20T11:13:12;99831.44;;;14.27;65.51
54455;BME280;40364;52.270;10.546;2023-12-20T11:15:41;99827.47;;;14.28;66.64
54455;BME280;40364;52.270;10.546;2023-12-20T11:18:08;99819.47;;;13.90;72.13
54455;BME280;40364;52.270;10.546;2023-12-20T11:20:36;99812.66;;;13.20;74.57
54455;BME280;40364;52.270;10.546;2023-12-20T11:23:06;99824.63;;;13.21;74.54
54455;BME280;40364;52.270;10.546;2023-12-20T11:25:46;99788.50;;;14.12;69.09
54455;BME280;40364;52.270;10.546;2023-12-20T11:28:13;99807.88;;;13.21;72.96
54455;BME280;40364;52.270;10.546;2023-12-20T11:30:46;99810.81;;;13.65;74.86
54455;BME280;40364;52.270;10.546;2023-12-20T11:33:14;99804.56;;;14.19;70.17
54455;BME280;40364;52.270;10.546;2023-12-20T11:35:41;99793.03;;;13.17;75.58
54455;BME280;40364;52.270;10.546;2023-12-20T11:38:09;99802.88;;;13.37;74.55
54455;BME280;40364;52.270;10.546;2023-12-20T11:40:37;99805.78;;;13.47;75.23
54455;BME280;40364;52.270;10.546;2023-12-20T11:43:04;99802.94;;;13.77;75.35
54455;BME280;40364;52.270;10.546;2023-12-20T11:45:31;99798.22;;;13.48;75.36
54455;BME280;40364;52.270;10.546;2023-12-20T11:47:58;99813.56;;;13.61;77.68
54455;BME280;40364;52.270;10.546;2023-12-20T11:50:24;99806.63;;;12.92;83.11
54455;BME280;40364;52.270;10.546;2023-12-20T11:52:52;99786.44;;;13.32;80.83
54455;BME280;40364;52.270;10.546;2023-12-20T11:55:22;99808.97;;;13.46;81.19
54455;BME280;40364;52.270;10.546;2023-12-20T11:57:49;99813.69;;;13.38;82.70
54455;BME280;40364;52.270;10.546;2023-12-20T12:00:17;99790.56;;;13.41;82.89
54455;BME280;40364;52.270;10.546;2023-12-20T12:02:55;99808.66;;;13.88;83.12
54455;BME280;40364;52.270;10.546;2023-12-20T12:05:22;99798.34;;;13.25;88.48
54455;BME280;40364;52.270;10.546;2023-12-20T12:07:48;99788.41;;;13.01;88.81
54455;BME280;40364;52.270;10.546;2023-12-20T12:10:15;99777.66;;;13.03;88.96
54455;BME280;40364;52.270;10.546;2023-12-20T12:12:43;99783.03;;;13.15;96.19
54455;BME280;40364;52.270;10.546;2023-12-20T12:15:10;99789.84;;;12.62;96.86
54455;BME280;40364;52.270;10.546;2023-12-20T12:17:37;99791.09;;;12.94;98.31
54455;BME280;40364;52.270;10.546;2023-12-20T12:20:05;99796.97;;;13.45;100.00
54455;BME280;40364;52.270;10.546;2023-12-20T12:22:33;99802.59;;;12.89;100.00
54455;BME280;40364;52.270;10.546;2023-12-20T12:25:10;99802.06;;;13.70;100.00
54455;BME280;40364;52.270;10.546;2023-12-20T12:27:36;99818.91;;;13.73;100.00
54455;BME280;40364;52.270;10.546;2023-12-20T12:30:06;99805.50;;;13.23;100.00
54455;BME280;40364;52.270;10.546;2023-12-20T12:32:33;99816.69;;;13.23;100.00
54455;BME280;40364;52.270;10.546;2023-12-20T12:35:03;99800.75;;;13.60;97.16
54455;BME280;40364;52.270;10.546;2023-12-20T12:37:30;99784.91;;;13.08;99.16
54455;BME280;40364;52.270;10.546;2023-12-20T12:39:57;99798.47;;;13.36;99.74
54455;BME280;40364;52.270;10.546;2023-12-20T12:42:23;99801.66;;;13.34;100.00
54455;BME280;40364;52.270;10.546;2023-12-20T12:44:54;99804.28;;;13.54;95.37